createdAt,value
2023-03-30T00:01:45.129Z,13.80
2023-03-30T00:04:34.713Z,13.80
2023-03-30T00:07:20.378Z,13.80
2023-03-30T00:10:07.034Z,13.80
2023-03-30T00:12:52.920Z,13.90
2023-03-30T00:15:38.287Z,13.90
2023-03-30T00:18:24.020Z,13.90
2023-03-30T00:21:12.303Z,13.90
2023-03-30T00:23:58.071Z,13.80
2023-03-30T00:26:43.821Z,13.80
2023-03-30T00:29:29.478Z,13.90
2023-03-30T00:32:15.233Z,13.90
2023-03-30T00:35:01.477Z,13.80
2023-03-30T00:37:49.509Z,13.90
2023-03-30T00:40:35.124Z,13.90
2023-03-30T00:43:20.965Z,13.80
2023-03-30T00:46:06.770Z,13.80
2023-03-30T00:48:53.047Z,13.80
2023-03-30T00:51:40.484Z,13.80
2023-03-30T00:54:26.482Z,13.80
2023-03-30T00:57:12.619Z,13.90
2023-03-30T00:59:58.251Z,13.90
2023-03-30T01:02:46.197Z,13.90
2023-03-30T01:05:31.653Z,13.90
2023-03-30T01:08:18.340Z,13.90
2023-03-30T01:11:06.587Z,13.90
2023-03-30T01:13:56.369Z,13.90
2023-03-30T01:16:57.350Z,13.80
2023-03-30T01:19:43.843Z,13.80
2023-03-30T01:22:29.597Z,13.80
2023-03-30T01:25:15.295Z,13.90
2023-03-30T01:28:14.623Z,13.80
2023-03-30T01:31:15.012Z,13.90
2023-03-30T01:34:19.480Z,13.90
2023-03-30T01:37:20.525Z,13.80
2023-03-30T01:40:11.402Z,13.80
2023-03-30T01:42:57.081Z,13.80
2023-03-30T01:45:44.622Z,13.80
2023-03-30T01:48:45.988Z,13.80
2023-03-30T01:51:37.948Z,13.80
2023-03-30T01:54:27.006Z,13.80
2023-03-30T01:57:15.494Z,13.80
2023-03-30T02:00:13.152Z,13.80
2023-03-30T02:03:20.039Z,13.80
2023-03-30T02:06:13.986Z,13.80
2023-03-30T02:09:00.421Z,13.80
2023-03-30T02:11:48.272Z,13.80
2023-03-30T02:14:34.675Z,13.80
2023-03-30T02:17:23.136Z,13.80
2023-03-30T02:20:12.493Z,13.80
2023-03-30T02:22:58.253Z,13.90
2023-03-30T02:25:45.868Z,13.90
2023-03-30T02:28:31.297Z,13.90
2023-03-30T02:31:17.148Z,18.20
2023-03-30T02:34:03.128Z,13.90
2023-03-30T02:36:48.346Z,13.90
2023-03-30T02:39:40.344Z,13.90
2023-03-30T02:42:36.509Z,13.90
2023-03-30T02:45:34.178Z,13.90
2023-03-30T02:48:31.853Z,13.80
2023-03-30T02:51:20.962Z,13.80
2023-03-30T02:54:34.483Z,13.90
2023-03-30T02:57:40.095Z,13.80
2023-03-30T03:01:18.018Z,13.80
2023-03-30T03:04:18.908Z,13.80
2023-03-30T03:07:25.183Z,13.80
2023-03-30T03:10:11.236Z,13.80
2023-03-30T03:12:57.780Z,13.80
2023-03-30T03:15:45.636Z,13.80
2023-03-30T03:18:31.761Z,13.80
2023-03-30T03:21:17.473Z,13.80
2023-03-30T03:24:03.634Z,13.80
2023-03-30T03:27:08.867Z,13.90
2023-03-30T03:30:11.475Z,13.90
2023-03-30T03:33:03.923Z,13.90
2023-03-30T03:35:54.069Z,13.90
2023-03-30T03:38:40.753Z,13.90
2023-03-30T03:41:26.898Z,14.00
2023-03-30T03:44:12.511Z,14.00
2023-03-30T03:46:58.744Z,14.00
2023-03-30T03:49:44.463Z,14.00
2023-03-30T03:52:31.249Z,14.10
2023-03-30T03:55:17.085Z,14.20
2023-03-30T03:58:05.214Z,14.30
2023-03-30T04:01:02.977Z,14.40
2023-03-30T04:03:52.353Z,14.50
2023-03-30T04:06:37.907Z,14.60
2023-03-30T04:09:24.698Z,14.70
2023-03-30T04:12:36.480Z,14.70
2023-03-30T04:15:29.807Z,14.80
2023-03-30T04:18:41.721Z,14.90
2023-03-30T04:21:49.504Z,15.00
2023-03-30T04:24:54.033Z,15.00
2023-03-30T04:27:57.926Z,15.10
2023-03-30T04:31:22.998Z,15.10
2023-03-30T04:34:26.802Z,15.20
2023-03-30T04:37:44.365Z,15.30
2023-03-30T04:40:52.142Z,15.30
2023-03-30T04:44:04.620Z,15.30
2023-03-30T04:47:01.781Z,15.40
2023-03-30T04:50:06.112Z,15.30
2023-03-30T04:53:10.796Z,15.50
2023-03-30T04:56:09.470Z,15.50
2023-03-30T04:59:15.619Z,15.50
2023-03-30T05:02:19.418Z,15.50
2023-03-30T05:05:23.868Z,15.50
2023-03-30T05:08:25.121Z,15.60
2023-03-30T05:11:29.516Z,15.60
2023-03-30T05:14:20.009Z,15.60
2023-03-30T05:17:16.646Z,15.60
2023-03-30T05:20:33.142Z,15.70
2023-03-30T05:23:37.606Z,15.70
2023-03-30T05:26:50.316Z,15.70
2023-03-30T05:30:14.557Z,15.70
2023-03-30T05:33:20.929Z,15.70
2023-03-30T05:36:32.857Z,15.70
2023-03-30T05:39:27.272Z,15.70
2023-03-30T05:42:28.493Z,15.70
2023-03-30T05:45:32.604Z,15.80
2023-03-30T05:48:44.452Z,15.80
2023-03-30T05:51:48.055Z,15.80
2023-03-30T05:54:47.809Z,15.80
2023-03-30T05:58:11.884Z,15.90
2023-03-30T06:01:17.387Z,15.90
2023-03-30T06:04:06.304Z,15.90
2023-03-30T06:06:53.563Z,15.90
2023-03-30T06:09:39.925Z,15.90
2023-03-30T06:12:39.453Z,15.90
2023-03-30T06:15:36.965Z,15.90
2023-03-30T06:18:33.538Z,15.90
2023-03-30T06:21:25.249Z,15.90
2023-03-30T06:24:29.710Z,16.00
2023-03-30T06:27:18.452Z,16.00
2023-03-30T06:30:04.496Z,16.00
2023-03-30T06:32:50.192Z,16.00
2023-03-30T06:35:47.065Z,16.00
2023-03-30T06:38:34.929Z,16.00
2023-03-30T06:41:20.611Z,16.10
2023-03-30T06:44:10.432Z,16.10
2023-03-30T06:46:58.309Z,16.10
2023-03-30T06:49:43.998Z,16.10
2023-03-30T06:52:48.523Z,16.10
2023-03-30T06:55:33.972Z,16.20
2023-03-30T06:58:19.629Z,16.20
2023-03-30T07:01:10.288Z,16.20
2023-03-30T07:04:07.378Z,16.20
2023-03-30T07:07:15.461Z,16.20
2023-03-30T07:10:01.487Z,16.20
2023-03-30T07:12:47.857Z,16.20
2023-03-30T07:15:34.526Z,16.30
2023-03-30T07:18:20.586Z,16.30
2023-03-30T07:21:06.556Z,16.30
2023-03-30T07:23:58.179Z,16.30
2023-03-30T07:26:49.355Z,16.40
2023-03-30T07:29:35.163Z,16.40
2023-03-30T07:32:20.819Z,16.40
2023-03-30T07:35:06.854Z,16.40
2023-03-30T07:38:02.006Z,16.40
2023-03-30T07:40:52.728Z,16.40
2023-03-30T07:43:43.285Z,16.50
2023-03-30T07:46:29.473Z,16.50
2023-03-30T07:49:15.290Z,16.50
2023-03-30T07:52:01.466Z,16.50
2023-03-30T07:54:57.299Z,16.60
2023-03-30T07:57:51.553Z,16.60
2023-03-30T08:00:37.285Z,16.60
2023-03-30T08:03:45.156Z,16.60
2023-03-30T08:06:30.952Z,16.70
2023-03-30T08:09:17.940Z,16.70
2023-03-30T08:12:04.112Z,16.70
2023-03-30T08:14:49.598Z,16.70
2023-03-30T08:17:35.325Z,16.70
2023-03-30T08:20:20.766Z,16.70
2023-03-30T08:23:06.922Z,16.80
2023-03-30T08:25:56.358Z,16.80
2023-03-30T08:28:41.986Z,16.80
2023-03-30T08:31:27.894Z,16.80
2023-03-30T08:34:13.337Z,16.80
2023-03-30T08:36:59.089Z,16.80
2023-03-30T08:39:44.666Z,16.80
2023-03-30T08:42:33.026Z,16.80
2023-03-30T08:45:18.759Z,16.70
2023-03-30T08:48:06.492Z,16.70
2023-03-30T08:51:05.837Z,16.70
2023-03-30T08:53:55.049Z,16.70
2023-03-30T08:56:44.185Z,16.70
2023-03-30T08:59:36.389Z,16.80
2023-03-30T09:02:30.671Z,16.70
2023-03-30T09:05:26.508Z,16.80
2023-03-30T09:08:22.677Z,16.80
2023-03-30T09:11:13.582Z,16.90
2023-03-30T09:14:03.037Z,16.90
2023-03-30T09:16:55.972Z,16.90
2023-03-30T09:19:50.525Z,16.90
2023-03-30T09:22:38.873Z,16.90
2023-03-30T09:25:24.213Z,16.90
2023-03-30T09:28:32.806Z,16.90
2023-03-30T09:31:25.945Z,16.90
2023-03-30T09:34:35.956Z,16.80
2023-03-30T09:37:22.491Z,16.70
2023-03-30T09:40:20.791Z,16.70
2023-03-30T09:43:06.512Z,16.70
2023-03-30T09:45:52.544Z,16.60
2023-03-30T09:48:42.247Z,16.60
2023-03-30T09:51:31.325Z,16.60
2023-03-30T09:54:17.226Z,16.60
2023-03-30T09:57:02.972Z,16.60
2023-03-30T09:59:48.485Z,16.60
2023-03-30T10:02:34.373Z,16.60
2023-03-30T10:05:19.850Z,16.70
2023-03-30T10:08:06.525Z,16.70
2023-03-30T10:10:56.572Z,16.70
2023-03-30T10:13:43.054Z,16.80
2023-03-30T10:16:30.535Z,16.80
2023-03-30T10:19:18.673Z,16.90
2023-03-30T10:22:13.354Z,16.90
2023-03-30T10:24:59.402Z,17.00
2023-03-30T10:27:45.794Z,17.00
2023-03-30T10:30:32.668Z,17.10
2023-03-30T10:33:18.188Z,17.20
2023-03-30T10:36:03.913Z,17.30
2023-03-30T10:38:49.786Z,17.30
2023-03-30T10:41:36.976Z,17.40
2023-03-30T10:44:32.946Z,19.00
2023-03-30T10:47:30.912Z,17.50
2023-03-30T10:50:19.935Z,17.60
2023-03-30T10:53:12.473Z,20.30
2023-03-30T10:56:07.286Z,17.70
2023-03-30T10:59:02.924Z,17.80
2023-03-30T11:01:54.740Z,17.80
2023-03-30T11:04:45.537Z,17.90
2023-03-30T11:07:36.482Z,17.90
2023-03-30T11:10:31.513Z,17.90
2023-03-30T11:13:25.254Z,17.90
2023-03-30T11:16:32.597Z,17.90
2023-03-30T11:19:41.315Z,17.80
2023-03-30T11:22:34.390Z,17.70
2023-03-30T11:25:22.068Z,17.70
2023-03-30T11:28:18.755Z,17.70
2023-03-30T11:31:09.902Z,17.70
2023-03-30T11:34:03.773Z,17.80
2023-03-30T11:36:55.747Z,17.70
2023-03-30T11:39:45.294Z,17.70
2023-03-30T11:42:31.917Z,17.70
2023-03-30T11:45:20.741Z,17.70
2023-03-30T11:48:13.914Z,17.70
2023-03-30T11:51:08.836Z,17.70
2023-03-30T11:54:21.244Z,17.70
2023-03-30T11:57:18.898Z,17.70
2023-03-30T12:00:34.612Z,17.70
2023-03-30T12:03:26.797Z,17.60
2023-03-30T12:06:12.926Z,17.60
2023-03-30T12:09:13.783Z,17.60
2023-03-30T12:12:12.073Z,17.70
2023-03-30T12:14:57.554Z,17.60
2023-03-30T12:17:43.238Z,17.70
2023-03-30T12:20:52.131Z,17.70
2023-03-30T12:23:49.627Z,17.80
2023-03-30T12:26:37.874Z,17.90
2023-03-30T12:32:28.922Z,18.20
2023-03-30T12:35:33.750Z,18.30
2023-03-30T12:38:25.489Z,18.30
2023-03-30T12:41:18.510Z,18.40
2023-03-30T12:44:10.753Z,18.50
2023-03-30T12:47:06.765Z,18.50
2023-03-30T12:49:55.576Z,18.50
2023-03-30T12:52:46.569Z,18.50
2023-03-30T12:55:39.908Z,18.50
2023-03-30T12:58:40.695Z,18.40
2023-03-30T13:01:48.533Z,15.10
2023-03-30T13:04:37.281Z,18.40
2023-03-30T13:07:23.622Z,18.30
2023-03-30T13:10:28.147Z,18.20
2023-03-30T13:13:22.063Z,18.30
2023-03-30T13:16:08.420Z,18.30
2023-03-30T13:18:55.110Z,18.50
2023-03-30T13:21:49.030Z,18.60
2023-03-30T13:24:53.085Z,18.80
2023-03-30T13:27:41.744Z,19.00
2023-03-30T13:30:29.335Z,19.10
2023-03-30T13:33:17.166Z,19.10
2023-03-30T13:36:12.172Z,19.00
2023-03-30T13:39:04.144Z,19.00
2023-03-30T13:42:02.151Z,18.90
2023-03-30T13:44:56.090Z,19.00
2023-03-30T13:47:58.199Z,19.00
2023-03-30T13:50:51.362Z,19.00
2023-03-30T13:53:44.226Z,21.90
2023-03-30T13:56:30.557Z,19.20
2023-03-30T13:59:18.482Z,19.20
2023-03-30T14:02:04.166Z,19.10
2023-03-30T14:04:50.508Z,19.10
2023-03-30T14:07:40.601Z,19.00
2023-03-30T14:10:27.005Z,18.90
2023-03-30T14:13:13.724Z,18.90
2023-03-30T14:16:04.139Z,18.80
2023-03-30T14:18:50.589Z,18.80
2023-03-30T14:21:36.733Z,18.80
2023-03-30T14:24:32.942Z,18.80
2023-03-30T14:27:18.600Z,18.90
2023-03-30T14:30:17.981Z,18.90
2023-03-30T14:33:07.139Z,19.00
2023-03-30T14:35:56.460Z,19.00
2023-03-30T14:38:43.525Z,19.00
2023-03-30T14:41:29.138Z,19.00
2023-03-30T14:44:15.195Z,18.90
2023-03-30T14:47:00.801Z,18.80
2023-03-30T14:49:47.622Z,18.80
2023-03-30T14:52:34.382Z,18.70
2023-03-30T14:55:24.615Z,18.60
2023-03-30T14:58:13.637Z,18.60
2023-03-30T15:01:01.124Z,18.50
2023-03-30T15:03:47.299Z,18.40
2023-03-30T15:06:36.558Z,18.40
2023-03-30T15:09:23.375Z,18.30
2023-03-30T15:12:17.987Z,18.20
2023-03-30T15:15:06.202Z,18.30
2023-03-30T15:17:51.799Z,18.20
2023-03-30T15:20:37.132Z,18.30
2023-03-30T15:23:24.471Z,18.40
2023-03-30T15:26:11.388Z,18.50
2023-03-30T15:28:57.937Z,18.70
2023-03-30T15:31:44.620Z,18.80
2023-03-30T15:34:30.232Z,19.00
2023-03-30T15:37:23.002Z,19.00
2023-03-30T15:40:27.135Z,19.00
2023-03-30T15:43:16.541Z,19.00
2023-03-30T15:46:04.571Z,18.90
2023-03-30T15:48:51.333Z,18.90
2023-03-30T15:51:39.647Z,18.80
2023-03-30T15:54:28.337Z,18.80
2023-03-30T15:57:18.351Z,18.80
2023-03-30T16:00:12.481Z,18.70
2023-03-30T16:03:01.718Z,18.70
2023-03-30T16:05:47.553Z,18.70
2023-03-30T16:08:33.156Z,18.60
2023-03-30T16:11:20.650Z,18.60
2023-03-30T16:14:07.352Z,18.60
2023-03-30T16:16:52.915Z,18.60
2023-03-30T16:19:39.053Z,18.60
2023-03-30T16:22:24.710Z,18.60
2023-03-30T16:25:10.476Z,18.60
2023-03-30T16:27:55.964Z,18.60
2023-03-30T16:30:42.296Z,18.50
2023-03-30T16:33:27.624Z,18.60
2023-03-30T16:36:17.908Z,18.60
2023-03-30T16:39:05.652Z,18.60
2023-03-30T16:41:51.920Z,18.60
2023-03-30T16:44:37.561Z,18.50
2023-03-30T16:47:23.189Z,18.50
2023-03-30T16:50:16.432Z,18.40
2023-03-30T16:53:02.072Z,18.40
2023-03-30T16:55:47.912Z,18.30
2023-03-30T16:58:33.333Z,18.30
2023-03-30T17:01:19.032Z,18.20
2023-03-30T17:04:09.630Z,18.20
2023-03-30T17:06:55.392Z,17.80
2023-03-30T17:09:41.337Z,18.10
2023-03-30T17:12:26.919Z,18.10
2023-03-30T17:15:12.709Z,18.20
2023-03-30T17:17:58.111Z,18.10
2023-03-30T17:20:53.586Z,18.10
2023-03-30T17:23:39.218Z,18.10
2023-03-30T17:26:24.970Z,18.10
2023-03-30T17:29:10.961Z,18.10
2023-03-30T17:31:56.655Z,18.10
2023-03-30T17:34:42.711Z,18.00
2023-03-30T17:37:28.191Z,18.10
2023-03-30T17:40:14.987Z,18.10
2023-03-30T17:43:00.469Z,20.20
2023-03-30T17:45:47.129Z,18.00
2023-03-30T17:48:32.981Z,18.00
2023-03-30T17:51:18.798Z,18.00
2023-03-30T17:54:04.378Z,18.00
2023-03-30T17:56:49.832Z,18.00
2023-03-30T17:59:35.805Z,17.90
2023-03-30T18:02:21.374Z,17.90
2023-03-30T18:05:07.207Z,17.90
2023-03-30T18:07:53.125Z,17.90
2023-03-30T18:10:39.410Z,17.90
2023-03-30T18:13:25.867Z,17.90
2023-03-30T18:16:15.128Z,17.90
2023-03-30T18:19:02.308Z,17.90
2023-03-30T18:21:47.878Z,17.90
2023-03-30T18:24:33.745Z,17.90
2023-03-30T18:27:19.361Z,17.80
2023-03-30T18:30:18.851Z,17.70
2023-03-30T18:33:05.605Z,17.50
2023-03-30T18:35:51.759Z,17.40
2023-03-30T18:38:37.727Z,17.30
2023-03-30T18:41:23.108Z,17.20
2023-03-30T18:44:08.928Z,17.10
2023-03-30T18:46:54.198Z,17.10
2023-03-30T18:49:39.816Z,17.10
2023-03-30T18:52:25.308Z,17.00
2023-03-30T18:55:11.534Z,16.90
2023-03-30T18:57:57.957Z,16.90
2023-03-30T19:00:44.065Z,16.90
2023-03-30T19:03:30.216Z,16.90
2023-03-30T19:06:19.688Z,16.80
2023-03-30T19:09:05.068Z,16.80
2023-03-30T19:11:50.604Z,16.80
2023-03-30T19:14:36.519Z,16.80
2023-03-30T19:17:21.834Z,16.80
2023-03-30T19:20:07.742Z,16.80
2023-03-30T19:22:53.621Z,16.80
2023-03-30T19:25:39.356Z,16.80
2023-03-30T19:28:24.956Z,16.80
2023-03-30T19:31:13.493Z,16.70
2023-03-30T19:33:59.117Z,18.00
2023-03-30T19:36:44.879Z,16.80
2023-03-30T19:39:30.978Z,16.70
2023-03-30T19:42:16.596Z,16.70
2023-03-30T19:45:02.971Z,16.70
2023-03-30T19:47:48.258Z,16.70
2023-03-30T19:50:34.099Z,16.70
2023-03-30T19:53:19.617Z,16.70
2023-03-30T19:56:10.289Z,16.70
2023-03-30T19:58:56.201Z,16.70
2023-03-30T20:01:41.765Z,16.70
2023-03-30T20:04:27.323Z,16.60
2023-03-30T20:07:13.764Z,16.70
2023-03-30T20:09:59.054Z,16.70
2023-03-30T20:12:45.044Z,16.60
2023-03-30T20:15:30.899Z,16.60
2023-03-30T20:18:18.379Z,16.60
2023-03-30T20:21:04.493Z,16.60
2023-03-30T20:23:50.169Z,16.60
2023-03-30T20:26:35.552Z,16.60
2023-03-30T20:29:21.183Z,16.60
2023-03-30T20:32:06.755Z,16.30
2023-03-30T20:34:52.234Z,16.00
2023-03-30T20:37:37.938Z,15.70
2023-03-30T20:40:24.050Z,15.50
2023-03-30T20:43:15.231Z,15.30
2023-03-30T20:46:05.738Z,15.20
2023-03-30T20:48:54.038Z,15.10
2023-03-30T20:51:40.164Z,15.00
2023-03-30T20:54:26.014Z,14.90
2023-03-30T20:57:12.202Z,14.80
2023-03-30T20:59:57.554Z,14.80
2023-03-30T21:02:43.274Z,14.70
2023-03-30T21:05:28.909Z,14.70
2023-03-30T21:08:14.535Z,14.60
2023-03-30T21:11:00.838Z,14.70
2023-03-30T21:13:46.607Z,14.60
2023-03-30T21:16:32.467Z,14.60
2023-03-30T21:19:18.091Z,14.70
2023-03-30T21:22:03.665Z,14.60
2023-03-30T21:24:49.293Z,14.60
2023-03-30T21:27:34.868Z,14.60
2023-03-30T21:30:20.656Z,14.60
2023-03-30T21:33:06.948Z,14.50
2023-03-30T21:35:53.134Z,14.50
2023-03-30T21:38:38.685Z,14.40
2023-03-30T21:41:26.148Z,14.40
2023-03-30T21:44:11.426Z,14.50
2023-03-30T21:46:57.278Z,14.50
2023-03-30T21:49:43.297Z,14.40
2023-03-30T21:52:29.483Z,14.30
2023-03-30T21:55:15.134Z,14.30
2023-03-30T21:58:00.722Z,14.30
2023-03-30T22:00:46.902Z,14.30
2023-03-30T22:03:32.529Z,14.30
2023-03-30T22:06:18.060Z,14.20
2023-03-30T22:09:03.599Z,14.30
2023-03-30T22:11:49.156Z,14.20
2023-03-30T22:14:34.861Z,14.20
2023-03-30T22:17:20.437Z,14.10
2023-03-30T22:20:07.016Z,14.10
2023-03-30T22:22:52.625Z,14.10
2023-03-30T22:25:38.150Z,14.00
2023-03-30T22:28:24.040Z,14.00
2023-03-30T22:31:11.076Z,13.90
2023-03-30T22:33:56.848Z,13.90
2023-03-30T22:36:43.450Z,13.90
2023-03-30T22:39:29.344Z,13.80
2023-03-30T22:42:14.677Z,13.90
2023-03-30T22:45:00.442Z,14.00
2023-03-30T22:47:46.028Z,13.90
2023-03-30T22:50:31.665Z,13.90
2023-03-30T22:53:17.762Z,13.80
2023-03-30T22:56:03.687Z,13.80
2023-03-30T22:58:49.600Z,13.80
2023-03-30T23:01:37.044Z,13.80
2023-03-30T23:04:24.708Z,13.90
2023-03-30T23:07:10.424Z,13.80
2023-03-30T23:09:58.353Z,13.90
2023-03-30T23:12:44.357Z,13.80
2023-03-30T23:15:29.938Z,13.90
2023-03-30T23:18:15.708Z,13.80
2023-03-30T23:21:06.329Z,13.90
2023-03-30T23:23:52.360Z,13.80
2023-03-30T23:26:38.144Z,13.90
2023-03-30T23:29:23.837Z,13.90
2023-03-30T23:32:09.551Z,13.90
2023-03-30T23:34:55.336Z,13.90
2023-03-30T23:37:41.031Z,13.80
2023-03-30T23:40:26.367Z,13.80
2023-03-30T23:43:11.892Z,13.90
2023-03-30T23:45:57.960Z,13.90
2023-03-30T23:48:43.262Z,13.80
2023-03-30T23:51:28.589Z,13.70
2023-03-30T23:54:15.721Z,13.80
2023-03-30T23:57:04.479Z,13.70
2023-03-30T23:59:49.946Z,13.60
